createdAt,value
2022-10-29T00:01:04.941Z,101419.34
2022-10-29T00:03:32.695Z,101421.19
2022-10-29T00:06:05.996Z,101434.78
2022-10-29T00:08:36.056Z,101423.81
2022-10-29T00:11:15.079Z,101424.66
2022-10-29T00:13:43.610Z,101426.56
2022-10-29T00:16:17.257Z,101402.44
2022-10-29T00:18:45.653Z,101423.94
2022-10-29T00:21:16.378Z,101417.25
2022-10-29T00:23:44.388Z,101396.47
2022-10-29T00:26:13.260Z,101385.56
2022-10-29T00:28:42.230Z,101399.13
2022-10-29T00:31:17.029Z,101413.69
2022-10-29T00:33:45.588Z,101407.34
2022-10-29T00:36:15.678Z,101413.97
2022-10-29T00:38:43.636Z,101383.78
2022-10-29T00:41:14.433Z,101383.78
2022-10-29T00:43:48.628Z,101405.75
2022-10-29T00:46:29.880Z,101398.00
2022-10-29T00:48:59.245Z,101369.13
2022-10-29T00:51:28.724Z,101355.72
2022-10-29T00:54:19.531Z,101411.03
2022-10-29T00:57:06.635Z,101369.22
2022-10-29T00:59:34.343Z,101364.06
2022-10-29T01:02:02.159Z,101363.25
2022-10-29T01:04:31.382Z,101403.38
2022-10-29T01:06:59.136Z,101358.34
2022-10-29T01:09:27.013Z,101372.97
2022-10-29T01:12:11.372Z,101367.59
2022-10-29T01:14:57.246Z,101396.28
2022-10-29T01:17:41.616Z,101386.72
2022-10-29T01:20:46.723Z,101385.41
2022-10-29T01:23:52.310Z,101388.66
2022-10-29T01:26:45.989Z,101345.25
2022-10-29T01:29:44.745Z,101375.84
2022-10-29T01:32:44.659Z,101376.16
2022-10-29T01:35:21.040Z,101373.41
2022-10-29T01:38:06.210Z,101348.19
2022-10-29T01:40:41.636Z,101348.31
2022-10-29T01:45:56.835Z,101349.84
2022-10-29T01:48:33.956Z,101330.44
2022-10-29T01:51:07.844Z,101351.28
2022-10-29T01:53:38.292Z,101353.72
2022-10-29T01:56:06.209Z,101333.97
2022-10-29T01:58:36.089Z,101311.97
2022-10-29T02:01:15.355Z,101341.31
2022-10-29T02:04:20.769Z,101338.56
2022-10-29T02:06:48.311Z,101340.50
2022-10-29T02:09:38.337Z,101321.28
2022-10-29T02:12:30.811Z,101290.84
2022-10-29T02:15:10.418Z,101338.56
2022-10-29T02:17:39.596Z,101319.53
2022-10-29T02:20:10.848Z,101331.44
2022-10-29T02:22:38.829Z,101298.66
2022-10-29T02:25:08.660Z,101278.28
2022-10-29T02:27:36.358Z,101328.69
2022-10-29T02:30:05.145Z,101328.41
2022-10-29T02:32:33.099Z,101326.47
2022-10-29T02:35:01.866Z,101326.19
2022-10-29T02:37:29.698Z,101283.34
2022-10-29T02:39:57.498Z,101322.31
2022-10-29T02:42:25.346Z,101325.88
2022-10-29T02:44:53.032Z,101319.88
2022-10-29T02:47:20.717Z,101306.38
2022-10-29T02:49:48.265Z,101310.94
2022-10-29T02:52:16.013Z,101306.38
2022-10-29T02:54:43.638Z,101262.03
2022-10-29T02:57:11.736Z,101314.41
2022-10-29T02:59:39.383Z,101317.13
2022-10-29T03:02:07.575Z,101310.22
2022-10-29T03:04:35.505Z,101305.56
2022-10-29T03:07:03.221Z,101291.53
2022-10-29T03:09:30.973Z,101314.41
2022-10-29T03:11:58.542Z,101278.91
2022-10-29T03:14:26.147Z,101312.25
2022-10-29T03:16:53.945Z,101313.34
2022-10-29T03:19:22.792Z,101280.31
2022-10-29T03:21:50.463Z,101255.94
2022-10-29T03:24:19.218Z,101243.72
2022-10-29T03:26:46.997Z,101280.59
2022-10-29T03:29:14.688Z,101278.47
2022-10-29T03:31:43.640Z,101301.63
2022-10-29T03:34:11.332Z,101320.56
2022-10-29T03:36:38.969Z,101275.53
2022-10-29T03:39:07.452Z,101298.59
2022-10-29T03:41:36.081Z,101278.16
2022-10-29T03:44:03.844Z,101306.88
2022-10-29T03:46:31.508Z,101318.16
2022-10-29T03:48:59.252Z,101322.81
2022-10-29T03:51:27.206Z,101286.19
2022-10-29T03:53:54.859Z,101317.34
2022-10-29T03:56:22.632Z,101314.06
2022-10-29T03:58:50.385Z,101235.47
2022-10-29T04:01:18.224Z,101297.78
2022-10-29T04:03:46.007Z,101313.84
2022-10-29T04:06:16.101Z,101298.28
2022-10-29T04:08:43.719Z,101300.97
2022-10-29T04:11:13.098Z,101276.63
2022-10-29T04:13:40.973Z,101299.63
2022-10-29T04:16:09.546Z,101300.50
2022-10-29T04:18:37.220Z,101270.50
2022-10-29T04:22:40.312Z,101316.88
2022-10-29T04:29:31.777Z,101292.25
2022-10-29T04:31:59.424Z,101269.91
2022-10-29T04:34:27.160Z,101304.56
2022-10-29T04:36:54.821Z,101313.56
2022-10-29T04:39:23.937Z,101289.63
2022-10-29T04:41:51.678Z,101313.16
2022-10-29T04:44:20.237Z,101252.66
2022-10-29T04:46:49.283Z,101279.28
2022-10-29T04:49:17.109Z,101309.63
2022-10-29T04:51:44.989Z,101306.38
2022-10-29T04:54:12.979Z,101313.66
2022-10-29T04:56:40.829Z,101286.00
2022-10-29T04:59:08.591Z,101318.84
2022-10-29T05:04:08.788Z,101308.28
2022-10-29T05:06:36.587Z,101297.69
2022-10-29T05:09:05.238Z,101305.69
2022-10-29T05:11:33.076Z,101302.63
2022-10-29T05:14:00.761Z,101279.09
2022-10-29T05:16:28.576Z,101235.38
2022-10-29T05:18:56.302Z,101306.00
2022-10-29T05:21:24.151Z,101326.66
2022-10-29T05:23:51.800Z,101282.31
2022-10-29T05:26:19.569Z,101271.75
2022-10-29T05:28:50.468Z,101296.97
2022-10-29T05:31:19.316Z,101319.47
2022-10-29T05:33:48.170Z,101320.56
2022-10-29T05:36:17.993Z,101292.69
2022-10-29T05:38:45.743Z,101287.81
2022-10-29T05:41:13.552Z,101313.09
2022-10-29T05:43:41.330Z,101315.34
2022-10-29T05:46:09.035Z,101253.13
2022-10-29T05:48:36.683Z,101325.56
2022-10-29T05:51:04.677Z,101282.72
2022-10-29T05:53:32.475Z,101306.06
2022-10-29T05:56:00.810Z,101328.28
2022-10-29T05:58:28.448Z,101321.16
2022-10-29T06:00:56.128Z,101261.88
2022-10-29T06:03:23.919Z,101293.06
2022-10-29T06:05:51.813Z,101306.50
2022-10-29T06:08:19.560Z,101283.75
2022-10-29T06:10:47.330Z,101328.88
2022-10-29T06:13:18.227Z,101319.63
2022-10-29T06:15:47.836Z,101318.53
2022-10-29T06:18:16.408Z,101319.84
2022-10-29T06:20:44.110Z,101303.63
2022-10-29T06:23:12.128Z,101324.81
2022-10-29T06:25:40.350Z,101276.81
2022-10-29T06:28:15.396Z,101314.81
2022-10-29T06:30:48.955Z,101268.38
2022-10-29T06:33:18.105Z,101333.97
2022-10-29T06:35:46.914Z,101327.06
2022-10-29T06:38:15.233Z,101294.72
2022-10-29T06:40:43.496Z,101321.78
2022-10-29T06:43:12.526Z,101300.81
2022-10-29T06:45:40.339Z,101327.38
2022-10-29T06:48:08.036Z,101255.50
2022-10-29T06:50:35.905Z,101294.53
2022-10-29T06:53:05.978Z,101309.69
2022-10-29T06:55:34.602Z,101290.44
2022-10-29T06:58:13.863Z,101314.66
2022-10-29T07:00:42.946Z,101314.88
2022-10-29T07:03:15.271Z,101305.25
2022-10-29T07:05:42.939Z,101284.41
2022-10-29T07:08:11.499Z,101298.78
2022-10-29T07:10:40.277Z,101295.28
2022-10-29T07:13:08.112Z,101314.28
2022-10-29T07:15:35.774Z,101323.56
2022-10-29T07:18:06.225Z,101339.25
2022-10-29T07:20:40.302Z,101268.97
2022-10-29T07:23:08.259Z,101332.75
2022-10-29T07:25:37.512Z,101330.59
2022-10-29T07:28:06.475Z,101339.06
2022-10-29T07:30:34.499Z,101329.53
2022-10-29T07:33:02.216Z,101343.47
2022-10-29T07:35:29.822Z,101281.94
2022-10-29T07:38:05.307Z,101338.38
2022-10-29T07:40:49.417Z,101350.88
2022-10-29T07:43:18.382Z,101251.03
2022-10-29T07:45:49.903Z,101288.00
2022-10-29T07:48:19.654Z,101358.88
2022-10-29T07:50:48.073Z,101348.84
2022-10-29T07:53:16.252Z,101364.88
2022-10-29T07:55:43.942Z,101365.59
2022-10-29T07:58:12.498Z,101366.09
2022-10-29T08:00:41.310Z,101374.88
2022-10-29T08:03:13.149Z,101361.97
2022-10-29T08:05:43.232Z,101343.16
2022-10-29T08:08:11.171Z,101359.84
2022-10-29T08:10:39.758Z,101365.22
2022-10-29T08:13:07.636Z,101350.28
2022-10-29T08:15:36.040Z,101282.81
2022-10-29T08:18:11.444Z,101301.28
2022-10-29T08:20:39.150Z,101320.72
2022-10-29T08:23:06.823Z,101335.88
2022-10-29T08:25:35.004Z,101317.16
2022-10-29T08:28:04.932Z,101355.06
2022-10-29T08:30:33.106Z,101328.03
2022-10-29T08:33:01.587Z,101365.47
2022-10-29T08:35:32.085Z,101356.78
2022-10-29T08:38:00.338Z,101361.09
2022-10-29T08:41:02.770Z,101364.34
2022-10-29T08:43:44.528Z,101357.22
2022-10-29T08:46:33.640Z,101364.84
2022-10-29T08:49:04.679Z,101356.59
2022-10-29T08:51:43.003Z,101356.09
2022-10-29T08:54:30.380Z,101366.78
2022-10-29T08:57:04.713Z,101360.97
2022-10-29T08:59:42.464Z,101363.44
2022-10-29T09:02:18.713Z,101324.88
2022-10-29T09:04:46.402Z,101302.94
2022-10-29T09:07:40.849Z,101318.28
2022-10-29T09:10:11.573Z,101364.97
2022-10-29T09:12:47.916Z,101368.25
2022-10-29T09:15:28.055Z,101366.50
2022-10-29T09:18:17.550Z,101362.19
2022-10-29T09:21:19.472Z,101368.44
2022-10-29T09:23:47.265Z,101384.19
2022-10-29T09:26:20.414Z,101316.50
2022-10-29T09:28:56.295Z,101338.88
2022-10-29T09:32:04.392Z,101355.97
2022-10-29T09:34:38.261Z,101362.19
2022-10-29T09:37:16.133Z,101328.53
2022-10-29T09:39:46.301Z,101362.91
2022-10-29T09:42:31.581Z,101368.38
2022-10-29T09:45:03.189Z,101355.88
2022-10-29T09:47:50.134Z,101364.53
2022-10-29T09:50:36.217Z,101357.41
2022-10-29T09:53:04.838Z,101362.28
2022-10-29T09:55:40.808Z,101358.09
2022-10-29T09:58:20.456Z,101294.00
2022-10-29T10:00:48.249Z,101352.94
2022-10-29T10:03:22.204Z,101346.81
2022-10-29T10:05:59.171Z,101345.19
2022-10-29T10:08:26.877Z,101347.44
2022-10-29T10:11:07.477Z,101344.69
2022-10-29T10:13:38.523Z,101326.69
2022-10-29T10:16:07.075Z,101341.94
2022-10-29T10:21:30.634Z,101299.06
2022-10-29T10:24:00.455Z,101313.81
2022-10-29T10:26:45.657Z,101347.56
2022-10-29T10:29:19.259Z,101341.59
2022-10-29T10:31:57.369Z,101335.28
2022-10-29T10:34:37.565Z,101342.78
2022-10-29T10:37:09.463Z,101267.38
2022-10-29T10:39:39.174Z,101344.59
2022-10-29T10:42:37.295Z,101344.00
2022-10-29T10:45:25.763Z,101341.34
2022-10-29T10:47:59.009Z,101346.03
2022-10-29T10:50:34.282Z,101329.66
2022-10-29T10:53:22.575Z,101303.63
2022-10-29T10:55:58.261Z,101279.88
2022-10-29T10:58:41.073Z,101307.63
2022-10-29T11:01:19.058Z,101332.41
2022-10-29T11:03:50.226Z,101324.88
2022-10-29T11:06:27.620Z,101289.72
2022-10-29T11:09:33.172Z,101337.72
2022-10-29T11:12:15.221Z,101307.00
2022-10-29T11:14:59.427Z,101323.50
2022-10-29T11:17:54.484Z,101330.91
2022-10-29T11:20:27.533Z,101325.50
2022-10-29T11:23:27.246Z,101310.88
2022-10-29T11:26:10.583Z,101326.53
2022-10-29T11:28:43.917Z,101324.31
2022-10-29T11:31:20.658Z,101323.69
2022-10-29T11:33:59.209Z,101255.41
2022-10-29T11:36:31.549Z,101303.97
2022-10-29T11:39:09.790Z,101303.34
2022-10-29T11:41:57.890Z,101301.31
2022-10-29T11:44:27.106Z,101302.13
2022-10-29T11:47:20.138Z,101299.19
2022-10-29T11:50:15.575Z,101294.38
2022-10-29T11:52:52.157Z,101295.19
2022-10-29T11:55:38.223Z,101297.34
2022-10-29T11:58:30.773Z,101268.19
2022-10-29T12:01:11.755Z,101293.56
2022-10-29T12:04:01.579Z,101285.25
2022-10-29T12:06:45.783Z,101286.56
2022-10-29T12:09:55.796Z,101283.81
2022-10-29T12:12:38.817Z,101277.50
2022-10-29T12:15:31.669Z,101272.50
2022-10-29T12:18:34.395Z,101261.25
2022-10-29T12:21:18.002Z,101261.25
2022-10-29T12:24:02.574Z,101259.31
2022-10-29T12:26:41.028Z,101222.47
2022-10-29T12:29:19.287Z,101235.63
2022-10-29T12:31:50.011Z,101245.28
2022-10-29T12:34:45.982Z,101244.16
2022-10-29T12:37:18.395Z,101223.84
2022-10-29T12:39:51.677Z,101226.31
2022-10-29T12:42:27.057Z,101242.53
2022-10-29T12:45:43.396Z,101249.94
2022-10-29T12:48:39.604Z,101238.09
2022-10-29T12:51:30.462Z,101206.81
2022-10-29T12:54:27.958Z,101239.56
2022-10-29T12:56:57.464Z,101218.56
2022-10-29T12:59:25.387Z,101225.44
2022-10-29T13:05:06.638Z,101201.94
2022-10-29T13:07:35.513Z,101210.56
2022-10-29T13:10:30.857Z,101216.88
2022-10-29T13:13:05.717Z,101208.94
2022-10-29T13:16:01.082Z,101134.97
2022-10-29T13:18:44.626Z,101204.78
2022-10-29T13:21:12.481Z,101199.47
2022-10-29T13:23:40.158Z,101197.53
2022-10-29T13:26:08.888Z,101177.84
2022-10-29T13:28:36.605Z,101103.19
2022-10-29T13:31:04.270Z,101179.63
2022-10-29T13:33:31.828Z,101179.44
2022-10-29T13:36:01.669Z,101179.56
2022-10-29T13:38:57.790Z,101135.94
2022-10-29T13:41:40.539Z,101184.88
2022-10-29T13:44:13.000Z,101177.44
2022-10-29T13:47:05.038Z,101178.44
2022-10-29T13:49:46.966Z,101090.19
2022-10-29T13:52:23.303Z,101166.03
2022-10-29T13:54:55.574Z,101146.88
2022-10-29T13:57:36.587Z,101166.38
2022-10-29T14:00:18.458Z,101169.09
2022-10-29T14:03:14.930Z,101107.75
2022-10-29T14:05:51.343Z,101166.66
2022-10-29T14:08:25.377Z,101149.00
2022-10-29T14:10:59.519Z,101133.47
2022-10-29T14:13:35.559Z,101139.34
2022-10-29T14:16:15.696Z,101127.34
2022-10-29T14:18:45.951Z,101089.03
2022-10-29T14:21:29.069Z,101156.72
2022-10-29T14:23:59.743Z,101145.44
2022-10-29T14:26:29.918Z,101135.69
2022-10-29T14:29:18.754Z,101105.38
2022-10-29T14:31:48.596Z,101148.38
2022-10-29T14:34:27.090Z,101141.44
2022-10-29T14:37:03.126Z,101098.66
2022-10-29T14:39:55.252Z,101100.28
2022-10-29T14:42:39.996Z,101136.88
2022-10-29T14:45:17.671Z,101088.53
2022-10-29T14:47:52.220Z,101109.16
2022-10-29T14:50:26.268Z,101112.88
2022-10-29T14:53:01.412Z,101133.91
2022-10-29T14:55:38.661Z,101136.97
2022-10-29T14:58:20.258Z,101127.09
2022-10-29T15:00:52.534Z,101100.47
2022-10-29T15:03:23.798Z,101096.41
2022-10-29T15:05:51.816Z,101127.84
2022-10-29T15:08:29.588Z,101088.06
2022-10-29T15:10:58.440Z,101110.00
2022-10-29T15:13:32.051Z,101123.78
2022-10-29T15:16:09.424Z,101103.03
2022-10-29T15:18:38.028Z,101111.03
2022-10-29T15:21:06.437Z,101095.81
2022-10-29T15:23:39.424Z,101117.28
2022-10-29T15:26:17.546Z,101074.81
2022-10-29T15:28:47.728Z,101117.59
2022-10-29T15:31:27.785Z,101123.09
2022-10-29T15:33:56.362Z,101075.09
2022-10-29T15:36:24.115Z,101092.91
2022-10-29T15:38:52.619Z,101118.50
2022-10-29T15:41:20.520Z,101122.34
2022-10-29T15:43:55.003Z,101121.53
2022-10-29T15:46:28.138Z,101087.91
2022-10-29T15:48:57.317Z,101113.13
2022-10-29T15:51:28.266Z,101085.25
2022-10-29T15:53:57.640Z,101118.78
2022-10-29T15:56:25.955Z,101078.47
2022-10-29T15:58:53.699Z,101095.81
2022-10-29T16:01:21.419Z,101111.38
2022-10-29T16:03:49.279Z,101107.75
2022-10-29T16:06:17.046Z,101086.16
2022-10-29T16:08:51.563Z,101062.66
2022-10-29T16:11:20.998Z,101108.78
2022-10-29T16:13:54.393Z,101110.06
2022-10-29T16:16:25.485Z,101116.84
2022-10-29T16:18:53.584Z,101119.31
2022-10-29T16:21:26.202Z,101118.50
2022-10-29T16:23:54.246Z,101073.69
2022-10-29T16:26:24.474Z,101075.63
2022-10-29T16:28:55.636Z,101118.63
2022-10-29T16:31:26.687Z,101119.44
2022-10-29T16:33:58.229Z,101121.38
2022-10-29T16:36:26.118Z,101094.63
2022-10-29T16:38:54.049Z,101117.59
2022-10-29T16:41:22.186Z,101046.25
2022-10-29T16:43:49.805Z,101115.19
2022-10-29T16:46:17.435Z,101117.56
2022-10-29T16:48:45.817Z,101126.31
2022-10-29T16:51:13.562Z,101005.53
2022-10-29T16:53:41.269Z,101107.66
2022-10-29T16:56:08.877Z,101142.06
2022-10-29T16:58:36.522Z,101101.09
2022-10-29T17:01:06.740Z,101137.94
2022-10-29T17:03:35.403Z,101108.53
2022-10-29T17:06:08.540Z,101131.25
2022-10-29T17:08:40.304Z,101135.69
2022-10-29T17:11:11.221Z,101124.63
2022-10-29T17:13:39.366Z,101144.72
2022-10-29T17:16:17.644Z,101143.75
2022-10-29T17:18:51.592Z,101150.63
2022-10-29T17:21:19.274Z,101098.97
2022-10-29T17:23:46.871Z,101121.06
2022-10-29T17:26:14.590Z,101117.63
2022-10-29T17:28:42.278Z,101074.66
2022-10-29T17:31:11.442Z,101159.84
2022-10-29T17:33:39.138Z,101162.59
2022-10-29T17:36:11.061Z,101134.78
2022-10-29T17:38:38.862Z,101155.88
2022-10-29T17:41:06.706Z,101143.50
2022-10-29T17:43:35.851Z,101140.19
2022-10-29T17:46:03.932Z,101130.16
2022-10-29T17:48:31.796Z,101177.75
2022-10-29T17:51:02.065Z,101174.69
2022-10-29T17:53:30.982Z,101110.44
2022-10-29T17:55:59.638Z,101177.44
2022-10-29T17:58:27.902Z,101178.56
2022-10-29T18:01:03.884Z,101143.03
2022-10-29T18:03:31.752Z,101135.53
2022-10-29T18:06:03.988Z,101170.00
2022-10-29T18:08:32.381Z,101132.16
2022-10-29T18:11:05.424Z,101107.00
2022-10-29T18:13:39.471Z,101173.88
2022-10-29T18:16:18.842Z,101171.94
2022-10-29T18:19:01.254Z,101172.75
2022-10-29T18:21:31.021Z,101131.03
2022-10-29T18:23:58.781Z,101165.34
2022-10-29T18:26:33.255Z,101170.22
2022-10-29T18:29:08.497Z,101164.03
2022-10-29T18:31:37.728Z,101155.72
2022-10-29T18:34:07.730Z,101160.88
2022-10-29T18:36:35.837Z,101161.50
2022-10-29T18:39:04.980Z,101159.91
2022-10-29T18:41:33.033Z,101101.28
2022-10-29T18:44:03.889Z,101163.34
2022-10-29T18:46:31.646Z,101163.53
2022-10-29T18:49:00.167Z,101108.03
2022-10-29T18:51:30.081Z,101150.22
2022-10-29T18:53:59.286Z,101159.34
2022-10-29T18:56:28.516Z,101159.47
2022-10-29T18:58:56.809Z,101144.25
2022-10-29T19:01:27.917Z,101097.81
2022-10-29T19:03:58.081Z,101160.41
2022-10-29T19:06:28.021Z,101165.56
2022-10-29T19:08:56.296Z,101115.88
2022-10-29T19:11:25.958Z,101144.28
2022-10-29T19:13:56.597Z,101137.16
2022-10-29T19:16:25.498Z,101172.06
2022-10-29T19:18:58.999Z,101176.44
2022-10-29T19:21:27.086Z,101168.22
2022-10-29T19:23:59.875Z,101159.28
2022-10-29T19:26:29.936Z,101174.50
2022-10-29T19:29:00.435Z,101172.56
2022-10-29T19:31:29.991Z,101126.03
2022-10-29T19:34:01.933Z,101168.22
2022-10-29T19:36:30.623Z,101160.78
2022-10-29T19:38:59.102Z,101159.16
2022-10-29T19:41:27.350Z,101159.66
2022-10-29T19:43:59.130Z,101149.91
2022-10-29T19:46:27.446Z,101154.19
2022-10-29T19:48:56.456Z,101120.91
2022-10-29T19:51:24.841Z,101153.38
2022-10-29T19:53:52.678Z,101152.88
2022-10-29T19:56:21.839Z,101115.84
2022-10-29T19:58:50.110Z,101150.72
2022-10-29T20:01:18.823Z,101136.94
2022-10-29T20:03:48.146Z,101138.38
2022-10-29T20:06:18.030Z,101126.19
2022-10-29T20:08:45.766Z,101131.50
2022-10-29T20:11:13.796Z,101121.63
2022-10-29T20:13:42.042Z,101151.78
2022-10-29T20:16:17.727Z,101149.84
2022-10-29T20:18:47.792Z,101151.78
2022-10-29T20:21:16.448Z,101154.81
2022-10-29T20:23:45.040Z,101130.41
2022-10-29T20:26:13.215Z,101152.09
2022-10-29T20:28:41.363Z,101156.25
2022-10-29T20:31:40.034Z,101164.50
2022-10-29T20:34:09.848Z,101137.72
2022-10-29T20:36:37.899Z,101158.69
2022-10-29T20:39:07.441Z,101109.59
2022-10-29T20:41:35.112Z,101161.94
2022-10-29T20:44:02.901Z,101159.69
2022-10-29T20:46:30.639Z,101140.22
2022-10-29T20:48:58.660Z,101157.66
2022-10-29T20:51:26.949Z,101126.63
2022-10-29T20:53:56.469Z,101163.34
2022-10-29T20:56:26.787Z,101147.63
2022-10-29T20:58:54.997Z,101160.28
2022-10-29T21:01:24.515Z,101148.50
2022-10-29T21:03:52.507Z,101148.19
2022-10-29T21:06:20.248Z,101152.56
2022-10-29T21:08:49.935Z,101132.25
2022-10-29T21:11:19.230Z,101138.75
2022-10-29T21:13:47.045Z,101138.88
2022-10-29T21:16:21.028Z,101145.44
2022-10-29T21:18:51.487Z,101076.59
2022-10-29T21:21:19.528Z,101134.09
2022-10-29T21:23:47.319Z,101143.94
2022-10-29T21:26:17.271Z,101147.88
2022-10-29T21:28:45.234Z,101154.19
2022-10-29T21:31:12.993Z,101160.47
2022-10-29T21:33:40.911Z,101153.84
2022-10-29T21:36:12.085Z,101099.81
2022-10-29T21:38:39.907Z,101167.09
2022-10-29T21:41:08.018Z,101130.06
2022-10-29T21:43:35.820Z,101159.28
2022-10-29T21:46:03.605Z,101147.91
2022-10-29T21:48:31.592Z,101109.09
2022-10-29T21:51:04.731Z,101160.81
2022-10-29T21:53:32.712Z,101160.81
2022-10-29T21:56:02.828Z,101140.41
2022-10-29T21:58:30.862Z,101147.72
2022-10-29T22:01:10.730Z,101133.13
2022-10-29T22:03:42.778Z,101115.16
2022-10-29T22:06:14.642Z,101155.72
2022-10-29T22:08:44.163Z,101121.13
2022-10-29T22:11:13.110Z,101156.84
2022-10-29T22:13:40.902Z,101138.69
2022-10-29T22:16:11.625Z,101138.78
2022-10-29T22:18:40.145Z,101155.22
2022-10-29T22:21:10.301Z,101159.59
2022-10-29T22:23:45.111Z,101142.72
2022-10-29T22:26:14.935Z,101125.50
2022-10-29T22:28:42.960Z,101118.38
2022-10-29T22:31:11.432Z,101139.50
2022-10-29T22:33:39.066Z,101132.09
2022-10-29T22:36:10.624Z,101149.25
2022-10-29T22:38:39.498Z,101154.72
2022-10-29T22:41:15.676Z,101149.84
2022-10-29T22:43:43.999Z,101099.44
2022-10-29T22:46:13.485Z,101098.53
2022-10-29T22:48:41.536Z,101146.09
2022-10-29T22:51:15.111Z,101150.78
2022-10-29T22:53:44.268Z,101147.72
2022-10-29T22:56:15.722Z,101141.34
2022-10-29T22:58:43.936Z,101103.88
2022-10-29T23:01:14.905Z,101101.47
2022-10-29T23:03:43.167Z,101146.91
2022-10-29T23:06:13.542Z,101091.19
2022-10-29T23:08:41.134Z,101096.69
2022-10-29T23:11:19.358Z,101128.03
2022-10-29T23:13:48.881Z,101115.06
2022-10-29T23:16:16.701Z,101075.59
2022-10-29T23:18:49.458Z,101118.06
2022-10-29T23:21:17.860Z,101060.16
2022-10-29T23:23:46.386Z,101129.75
2022-10-29T23:26:15.389Z,101106.03
2022-10-29T23:28:43.459Z,101115.34
2022-10-29T23:31:13.829Z,101117.78
2022-10-29T23:33:50.491Z,101109.16
2022-10-29T23:36:20.363Z,101116.66
2022-10-29T23:38:48.060Z,101081.78
2022-10-29T23:41:15.620Z,101115.06
2022-10-29T23:43:43.343Z,101095.38
2022-10-29T23:46:10.969Z,101096.69
2022-10-29T23:48:38.780Z,101045.84
2022-10-29T23:51:06.471Z,101076.09
2022-10-29T23:53:34.276Z,101030.63
2022-10-29T23:56:02.005Z,101082.78
2022-10-29T23:58:29.814Z,101043.69
